Nacogdoches, TX

7:33 AM CST on December 28, 2014 (GMT -0600)
South Side | Change Station
CLOSE
Current Station
Personal Weather Station
Location: Nacogdoches, TX
Elevation: 331 ft
Nearby Weather Stations

Elev 331 ft 31.59 °N, 94.66 °W | Updated 19 seconds ago

Rain
Rain
38.1 °F
Feels Like 38 °F
N
2.2
Wind Variable Wind from NW
Gusts 7.6 mph

Today
High -- | Low -- °F
--% Chance of Precip.
Yesterday
High -- | Low -- °F
Precip. -- in
7:17 AM 5:23 PM
Waxing Crescent, 48% visible
Pressure 30.21 in
Visibility 5.0 miles
Clouds Mostly Cloudy 600 ft
Overcast 7500 ft
Windchill 38 °F
Dew Point 38 °F
Humidity 99%
Rainfall 0.25 in
Snow Depth Not available.
UV 0 out of 12
Pollen .50 out of 12
Air Quality Not available.
Flu Activity Not available.
SPECI KLFK 281326Z AUTO 32006KT 5SM -RA BR BKN006 OVC075 04/03 A3021 RMK AO2 P0006 T00440028 $

More Conditions Fewer Conditions

Pressure 30.21 in
Visibility 5.0 miles
Clouds Mostly Cloudy 600 ft
Overcast 7500 ft
Windchill 38 °F
Dew Point 38 °F
Humidity 99%
Rainfall 0.25 in
Snow Depth Not available.
UV 0 out of 12
Pollen .50 out of 12
Air Quality Not available.
Flu Activity Not available.
SPECI KLFK 281326Z AUTO 32006KT 5SM -RA BR BKN006 OVC075 04/03 A3021 RMK AO2 P0006 T00440028 $

More Conditions Fewer Conditions

Nowcast | as of 5:22 am CST on December 28, 2014

Through 7 am CST...expect widespread light rain and drizzle to continue moving northeastward around 40 mph across much of the arklatex. Rainfall amounts will be light...ranging from a few one hundredths of an inch...to a tenth of an inch over the next couple of hours. Expect reduced visibility with the rain and some light fog as well...motorist are urged to use caution this morning.

×

10-Day Weather Forecast

Almanac

Astronomy

Dec. 28, 2014 Rise Set
Actual Time
Civil Twilight
Nautical Twilight
Astronomical Twilight
Moon
Length of Visible Light
Length of Day
Tomorrow will be .
, % of the Moon is Illuminated

Today's Extremes

State Highs State Lows

Community

WunderPhotos

Upload Photos

1,781,263 photos uploaded!

WunderBlogs® & News

Nearby

Air Quality

  Air Quality AQ Index Pollutant
Not available.

Snow Depth

Station Depth Elevation

Earthquake Activity

City Distance Mag. Time & Date
Minimum magnitude displayed is 2.5.

Coastal Water Temperatures

Place Temperature

Nearby Weather Stations